CDT,Max TemperatureF,Mean TemperatureF,Min TemperatureF,Max Dew PointF,MeanDew PointF,Min DewpointF,Max Humidity, Mean Humidity, Min Humidity, Max Sea Level PressureIn, Mean Sea Level PressureIn, Min Sea Level PressureIn, Max VisibilityMiles, Mean VisibilityMiles, Min VisibilityMiles, Max Wind SpeedMPH, Mean Wind SpeedMPH, Max Gust SpeedMPH,PrecipitationIn, CloudCover, Events, WindDirDegrees
2011-9-1,91,81,71,73,71,68,94,78,46,29.78,29.69,29.65,10,8,4,15,9,23,0.00,2,,143
2011-9-2,75,70,64,66,60,55,88,73,50,29.97,29.90,29.76,10,10,10,22,10,28,0.00,1,Rain,343
2011-9-3,69,63,57,63,55,45,100,73,43,30.06,29.95,29.88,10,10,7,21,6,28,0.00,4,Rain,305
2011-9-4,66,58,50,50,47,43,88,69,43,30.22,30.16,30.07,10,10,10,17,10,23,0.00,1,,325
2011-9-5,73,57,41,50,44,39,100,67,29,30.22,30.16,30.06,10,8,0,13,2,17,0.00,1,Fog,174
2011-9-6,78,63,48,55,49,45,93,64,32,30.16,30.11,30.09,10,10,7,15,7,22,0.00,0,,158
2011-9-7,78,63,48,59,52,48,100,68,36,30.30,30.24,30.17,10,10,10,7,3,,0.00,0,,140
2011-9-8,80,66,51,61,54,48,100,71,37,30.33,30.27,30.19,10,9,1,8,1,,0.00,1,,357
2011-9-9,87,70,53,59,54,46,100,69,24,30.18,30.12,30.05,10,10,10,14,4,16,0.00,0,,341
2011-9-10,87,69,51,63,54,45,100,67,23,30.11,30.06,30.01,10,10,7,8,3,,0.00,0,,329
2011-9-11,89,71,53,59,54,45,100,61,22,30.02,29.96,29.88,10,10,7,10,4,,0.00,0,,223
2011-9-12,86,72,57,57,53,46,73,52,27,29.97,29.81,29.71,10,10,10,25,11,32,0.00,0,,259
2011-9-13,69,56,42,48,41,30,100,61,23,30.16,30.06,30.01,10,10,7,20,7,22,0.00,1,,301
2011-9-14,57,47,37,34,28,21,81,51,25,30.37,30.31,30.18,10,10,10,21,11,38,0.00,1,,341
2011-9-15,57,42,28,37,28,21,100,60,25,30.45,30.38,30.27,10,10,10,8,3,,0.00,0,,134
2011-9-16,57,52,46,39,38,34,76,62,48,30.27,30.20,30.13,10,10,10,17,8,23,0.00,7,,169
2011-9-17,68,58,48,46,44,39,82,65,43,30.14,30.07,29.99,10,10,4,21,11,29,0.00,8,,150
2011-9-18,64,58,53,55,53,46,100,87,67,30.00,29.95,29.93,10,8,1,13,6,20,0.24,6,Rain,150
2011-9-19,77,60,42,50,41,28,100,61,17,30.05,29.97,29.85,10,9,0,10,3,16,0.00,0,Fog,225
2011-9-20,62,56,51,52,46,39,100,66,42,29.81,29.68,29.59,10,9,3,29,14,43,0.00,6,Rain-Thunderstorm,231
2011-9-21,53,50,48,52,46,43,100,86,71,30.13,29.99,29.71,10,9,3,25,17,34,0.01,8,Rain,314
2011-9-22,60,50,39,43,39,32,93,70,34,30.18,30.15,30.12,10,9,0,12,7,,0.01,4,,325
2011-9-23,66,48,30,43,35,30,100,66,26,30.16,30.09,30.00,10,9,0,12,2,,0.00,1,Fog,141
2011-9-24,68,52,37,45,40,37,100,70,33,30.05,30.01,29.97,10,9,5,9,7,16,0.00,0,,109
2011-9-25,68,52,35,45,39,34,100,69,28,30.01,29.98,29.93,10,10,7,10,4,16,0.00,0,,110
2011-9-26,75,58,41,52,45,39,100,70,29,29.98,29.94,29.88,10,10,4,14,4,22,0.00,1,,23
2011-9-27,78,61,44,52,44,39,100,65,24,29.99,29.93,29.88,10,9,4,9,2,,0.00,0,,309
2011-9-28,87,64,42,55,43,36,100,55,16,29.87,29.81,29.74,10,9,3,10,2,,0.00,0,,268
2011-9-29,69,62,55,45,40,32,63,46,25,30.20,30.01,29.84,10,10,10,32,17,45,0.00,1,,322
2011-9-30,62,50,37,41,34,19,100,60,19,30.30,30.24,30.19,10,10,5,10,7,16,0.00,0,,345